sensor_id;sensor_type;location;lat;lon;timestamp;temperature;humidity
59977;DHT22;45837;51.076;3.578;2023-10-19T00:01:55;20.10;61.90
59977;DHT22;45837;51.076;3.578;2023-10-19T00:04:21;20.10;62.00
59977;DHT22;45837;51.076;3.578;2023-10-19T00:06:47;20.20;62.80
59977;DHT22;45837;51.076;3.578;2023-10-19T00:09:14;20.10;63.00
59977;DHT22;45837;51.076;3.578;2023-10-19T00:11:41;20.10;62.10
59977;DHT22;45837;51.076;3.578;2023-10-19T00:14:06;20.10;62.20
59977;DHT22;45837;51.076;3.578;2023-10-19T00:16:43;20.10;62.20
59977;DHT22;45837;51.076;3.578;2023-10-19T00:19:15;20.10;61.80
59977;DHT22;45837;51.076;3.578;2023-10-19T00:21:45;20.10;61.80
59977;DHT22;45837;51.076;3.578;2023-10-19T00:24:19;20.10;61.80
59977;DHT22;45837;51.076;3.578;2023-10-19T00:26:47;20.10;61.30
59977;DHT22;45837;51.076;3.578;2023-10-19T00:29:20;19.50;61.60
59977;DHT22;45837;51.076;3.578;2023-10-19T00:32:05;20.10;62.00
59977;DHT22;45837;51.076;3.578;2023-10-19T00:34:32;20.10;62.70
59977;DHT22;45837;51.076;3.578;2023-10-19T00:36:59;20.00;62.20
59977;DHT22;45837;51.076;3.578;2023-10-19T00:39:36;20.10;62.00
59977;DHT22;45837;51.076;3.578;2023-10-19T00:42:16;19.20;60.80
59977;DHT22;45837;51.076;3.578;2023-10-19T00:44:46;20.10;61.90
59977;DHT22;45837;51.076;3.578;2023-10-19T00:47:15;20.10;62.90
59977;DHT22;45837;51.076;3.578;2023-10-19T00:49:45;20.10;62.30
59977;DHT22;45837;51.076;3.578;2023-10-19T00:52:11;20.00;61.50
59977;DHT22;45837;51.076;3.578;2023-10-19T00:54:39;20.00;62.10
59977;DHT22;45837;51.076;3.578;2023-10-19T00:57:08;20.00;61.50
59977;DHT22;45837;51.076;3.578;2023-10-19T00:59:39;20.00;62.80
59977;DHT22;45837;51.076;3.578;2023-10-19T01:02:16;20.00;61.80
59977;DHT22;45837;51.076;3.578;2023-10-19T01:04:48;20.00;61.50
59977;DHT22;45837;51.076;3.578;2023-10-19T01:07:38;20.00;61.30
59977;DHT22;45837;51.076;3.578;2023-10-19T01:10:04;20.00;62.00
59977;DHT22;45837;51.076;3.578;2023-10-19T01:12:31;20.10;61.60
59977;DHT22;45837;51.076;3.578;2023-10-19T01:17:36;20.00;61.30
59977;DHT22;45837;51.076;3.578;2023-10-19T01:20:08;20.00;61.50
59977;DHT22;45837;51.076;3.578;2023-10-19T01:23:09;20.00;61.40
59977;DHT22;45837;51.076;3.578;2023-10-19T01:28:22;20.00;61.40
59977;DHT22;45837;51.076;3.578;2023-10-19T01:30:54;20.00;61.60
59977;DHT22;45837;51.076;3.578;2023-10-19T01:33:20;19.20;61.10
59977;DHT22;45837;51.076;3.578;2023-10-19T01:35:49;20.00;61.80
59977;DHT22;45837;51.076;3.578;2023-10-19T01:38:34;20.00;61.60
59977;DHT22;45837;51.076;3.578;2023-10-19T01:41:00;19.90;64.10
59977;DHT22;45837;51.076;3.578;2023-10-19T01:43:29;20.00;61.90
59977;DHT22;45837;51.076;3.578;2023-10-19T01:45:58;20.00;61.40
59977;DHT22;45837;51.076;3.578;2023-10-19T01:48:29;19.90;61.60
59977;DHT22;45837;51.076;3.578;2023-10-19T01:50:59;20.00;62.10
59977;DHT22;45837;51.076;3.578;2023-10-19T01:53:25;19.40;61.60
59977;DHT22;45837;51.076;3.578;2023-10-19T01:55:52;19.90;63.10
59977;DHT22;45837;51.076;3.578;2023-10-19T01:58:26;19.90;62.60
59977;DHT22;45837;51.076;3.578;2023-10-19T02:00:52;20.00;61.50
59977;DHT22;45837;51.076;3.578;2023-10-19T02:03:21;19.90;62.20
59977;DHT22;45837;51.076;3.578;2023-10-19T02:05:59;19.90;62.00
59977;DHT22;45837;51.076;3.578;2023-10-19T02:08:26;19.90;61.40
59977;DHT22;45837;51.076;3.578;2023-10-19T02:10:52;19.90;61.50
59977;DHT22;45837;51.076;3.578;2023-10-19T02:13:21;19.90;61.90
59977;DHT22;45837;51.076;3.578;2023-10-19T02:15:47;19.90;61.40
59977;DHT22;45837;51.076;3.578;2023-10-19T02:18:14;19.90;62.00
59977;DHT22;45837;51.076;3.578;2023-10-19T02:20:40;19.90;63.00
59977;DHT22;45837;51.076;3.578;2023-10-19T02:23:09;19.90;62.30
59977;DHT22;45837;51.076;3.578;2023-10-19T02:25:35;19.90;61.40
59977;DHT22;45837;51.076;3.578;2023-10-19T02:28:04;19.90;61.60
59977;DHT22;45837;51.076;3.578;2023-10-19T02:30:32;19.90;62.20
59977;DHT22;45837;51.076;3.578;2023-10-19T02:32:59;19.90;61.80
59977;DHT22;45837;51.076;3.578;2023-10-19T02:35:26;19.90;61.50
59977;DHT22;45837;51.076;3.578;2023-10-19T02:37:53;19.90;61.90
59977;DHT22;45837;51.076;3.578;2023-10-19T02:40:19;17.20;61.10
59977;DHT22;45837;51.076;3.578;2023-10-19T02:42:48;19.90;61.80
59977;DHT22;45837;51.076;3.578;2023-10-19T02:45:16;19.90;61.30
59977;DHT22;45837;51.076;3.578;2023-10-19T02:47:43;19.90;61.90
59977;DHT22;45837;51.076;3.578;2023-10-19T02:50:09;19.90;61.50
59977;DHT22;45837;51.076;3.578;2023-10-19T02:52:39;19.90;62.60
59977;DHT22;45837;51.076;3.578;2023-10-19T02:55:07;19.90;62.30
59977;DHT22;45837;51.076;3.578;2023-10-19T02:57:33;20.00;61.60
59977;DHT22;45837;51.076;3.578;2023-10-19T02:59:58;19.90;63.20
59977;DHT22;45837;51.076;3.578;2023-10-19T03:02:25;19.80;63.00
59977;DHT22;45837;51.076;3.578;2023-10-19T03:04:56;20.80;62.60
59977;DHT22;45837;51.076;3.578;2023-10-19T03:07:22;19.90;62.00
59977;DHT22;45837;51.076;3.578;2023-10-19T03:09:47;19.90;62.90
59977;DHT22;45837;51.076;3.578;2023-10-19T03:12:20;19.90;61.50
59977;DHT22;45837;51.076;3.578;2023-10-19T03:14:45;19.90;62.10
59977;DHT22;45837;51.076;3.578;2023-10-19T03:17:15;19.90;61.60
59977;DHT22;45837;51.076;3.578;2023-10-19T03:19:41;19.90;61.80
59977;DHT22;45837;51.076;3.578;2023-10-19T03:22:07;19.90;63.60
59977;DHT22;45837;51.076;3.578;2023-10-19T03:24:35;18.40;62.00
59977;DHT22;45837;51.076;3.578;2023-10-19T03:27:09;19.80;61.70
59977;DHT22;45837;51.076;3.578;2023-10-19T03:29:41;19.80;61.50
59977;DHT22;45837;51.076;3.578;2023-10-19T03:32:12;19.80;61.50
59977;DHT22;45837;51.076;3.578;2023-10-19T03:34:38;19.80;62.70
59977;DHT22;45837;51.076;3.578;2023-10-19T03:37:04;19.80;62.90
59977;DHT22;45837;51.076;3.578;2023-10-19T03:39:37;19.80;61.90
59977;DHT22;45837;51.076;3.578;2023-10-19T03:42:04;19.80;62.40
59977;DHT22;45837;51.076;3.578;2023-10-19T03:44:34;19.90;61.70
59977;DHT22;45837;51.076;3.578;2023-10-19T03:47:19;19.80;61.30
59977;DHT22;45837;51.076;3.578;2023-10-19T03:49:48;19.80;61.60
59977;DHT22;45837;51.076;3.578;2023-10-19T03:52:14;19.80;61.40
59977;DHT22;45837;51.076;3.578;2023-10-19T03:54:40;19.80;62.80
59977;DHT22;45837;51.076;3.578;2023-10-19T03:57:10;19.80;62.10
59977;DHT22;45837;51.076;3.578;2023-10-19T03:59:48;19.80;61.50
59977;DHT22;45837;51.076;3.578;2023-10-19T04:02:22;19.80;61.40
59977;DHT22;45837;51.076;3.578;2023-10-19T04:04:54;19.80;61.60
59977;DHT22;45837;51.076;3.578;2023-10-19T04:07:20;19.80;63.20
59977;DHT22;45837;51.076;3.578;2023-10-19T04:09:50;19.80;63.50
59977;DHT22;45837;51.076;3.578;2023-10-19T04:12:35;19.80;61.70
59977;DHT22;45837;51.076;3.578;2023-10-19T04:15:01;19.70;61.70
59977;DHT22;45837;51.076;3.578;2023-10-19T04:17:39;19.80;63.10
59977;DHT22;45837;51.076;3.578;2023-10-19T04:20:06;19.70;63.60
59977;DHT22;45837;51.076;3.578;2023-10-19T04:22:44;19.70;63.60
59977;DHT22;45837;51.076;3.578;2023-10-19T04:25:11;19.70;64.20
59977;DHT22;45837;51.076;3.578;2023-10-19T04:27:41;19.70;64.00
59977;DHT22;45837;51.076;3.578;2023-10-19T04:30:08;18.50;62.60
59977;DHT22;45837;51.076;3.578;2023-10-19T04:32:45;19.80;63.70
59977;DHT22;45837;51.076;3.578;2023-10-19T04:35:14;19.80;63.20
59977;DHT22;45837;51.076;3.578;2023-10-19T04:37:53;19.80;63.00
59977;DHT22;45837;51.076;3.578;2023-10-19T04:40:19;19.90;63.70
59977;DHT22;45837;51.076;3.578;2023-10-19T04:42:45;19.90;63.50
59977;DHT22;45837;51.076;3.578;2023-10-19T04:45:11;19.80;63.70
59977;DHT22;45837;51.076;3.578;2023-10-19T04:47:37;19.80;63.70
59977;DHT22;45837;51.076;3.578;2023-10-19T04:50:03;19.90;63.80
59977;DHT22;45837;51.076;3.578;2023-10-19T04:52:29;19.80;63.30
59977;DHT22;45837;51.076;3.578;2023-10-19T04:54:55;19.90;63.80
59977;DHT22;45837;51.076;3.578;2023-10-19T04:57:21;19.90;64.80
59977;DHT22;45837;51.076;3.578;2023-10-19T04:59:47;19.80;65.60
59977;DHT22;45837;51.076;3.578;2023-10-19T05:02:13;19.90;65.20
59977;DHT22;45837;51.076;3.578;2023-10-19T05:04:38;19.90;65.90
59977;DHT22;45837;51.076;3.578;2023-10-19T05:07:06;19.90;66.00
59977;DHT22;45837;51.076;3.578;2023-10-19T05:09:32;19.90;66.50
59977;DHT22;45837;51.076;3.578;2023-10-19T05:11:57;19.90;68.20
59977;DHT22;45837;51.076;3.578;2023-10-19T05:14:23;20.00;67.60
59977;DHT22;45837;51.076;3.578;2023-10-19T05:16:49;20.00;67.20
59977;DHT22;45837;51.076;3.578;2023-10-19T05:19:15;20.00;67.30
59977;DHT22;45837;51.076;3.578;2023-10-19T05:21:41;20.10;67.00
59977;DHT22;45837;51.076;3.578;2023-10-19T05:24:07;20.20;67.40
59977;DHT22;45837;51.076;3.578;2023-10-19T05:26:35;20.20;66.50
59977;DHT22;45837;51.076;3.578;2023-10-19T05:29:01;20.30;66.40
59977;DHT22;45837;51.076;3.578;2023-10-19T05:31:27;20.50;68.80
59977;DHT22;45837;51.076;3.578;2023-10-19T05:33:53;20.50;66.80
59977;DHT22;45837;51.076;3.578;2023-10-19T05:36:19;20.30;66.00
59977;DHT22;45837;51.076;3.578;2023-10-19T05:38:45;20.50;66.20
59977;DHT22;45837;51.076;3.578;2023-10-19T05:41:11;18.70;65.30
59977;DHT22;45837;51.076;3.578;2023-10-19T05:43:37;20.60;65.90
59977;DHT22;45837;51.076;3.578;2023-10-19T05:46:03;20.60;64.50
59977;DHT22;45837;51.076;3.578;2023-10-19T05:48:30;20.70;65.10
59977;DHT22;45837;51.076;3.578;2023-10-19T05:50:55;20.70;65.70
59977;DHT22;45837;51.076;3.578;2023-10-19T05:53:22;20.70;65.50
59977;DHT22;45837;51.076;3.578;2023-10-19T05:55:48;20.80;65.70
59977;DHT22;45837;51.076;3.578;2023-10-19T05:58:15;20.70;65.20
59977;DHT22;45837;51.076;3.578;2023-10-19T06:00:41;20.80;65.20
59977;DHT22;45837;51.076;3.578;2023-10-19T06:03:07;19.90;64.80
59977;DHT22;45837;51.076;3.578;2023-10-19T06:05:33;20.70;66.00
59977;DHT22;45837;51.076;3.578;2023-10-19T06:07:59;20.70;65.30
59977;DHT22;45837;51.076;3.578;2023-10-19T06:10:27;20.70;65.20
59977;DHT22;45837;51.076;3.578;2023-10-19T06:12:53;20.70;64.40
59977;DHT22;45837;51.076;3.578;2023-10-19T06:15:20;20.70;64.70
59977;DHT22;45837;51.076;3.578;2023-10-19T06:17:54;20.70;64.50
59977;DHT22;45837;51.076;3.578;2023-10-19T06:20:20;20.80;66.50
59977;DHT22;45837;51.076;3.578;2023-10-19T06:22:56;20.80;65.00
59977;DHT22;45837;51.076;3.578;2023-10-19T06:25:24;20.70;63.70
59977;DHT22;45837;51.076;3.578;2023-10-19T06:27:50;20.70;63.80
59977;DHT22;45837;51.076;3.578;2023-10-19T06:30:17;20.80;65.00
59977;DHT22;45837;51.076;3.578;2023-10-19T06:32:50;20.80;63.80
59977;DHT22;45837;51.076;3.578;2023-10-19T06:35:17;20.80;63.50
59977;DHT22;45837;51.076;3.578;2023-10-19T06:37:43;20.50;63.50
59977;DHT22;45837;51.076;3.578;2023-10-19T06:40:09;20.80;63.60
59977;DHT22;45837;51.076;3.578;2023-10-19T06:42:37;20.80;64.00
59977;DHT22;45837;51.076;3.578;2023-10-19T06:45:03;20.80;63.80
59977;DHT22;45837;51.076;3.578;2023-10-19T06:47:29;20.80;63.70
59977;DHT22;45837;51.076;3.578;2023-10-19T06:49:55;20.80;63.70
59977;DHT22;45837;51.076;3.578;2023-10-19T06:52:21;20.80;63.30
59977;DHT22;45837;51.076;3.578;2023-10-19T06:54:47;20.80;63.80
59977;DHT22;45837;51.076;3.578;2023-10-19T06:57:13;20.80;64.00
59977;DHT22;45837;51.076;3.578;2023-10-19T06:59:38;20.70;65.20
59977;DHT22;45837;51.076;3.578;2023-10-19T07:02:04;20.80;65.00
59977;DHT22;45837;51.076;3.578;2023-10-19T07:04:33;20.80;64.80
59977;DHT22;45837;51.076;3.578;2023-10-19T07:06:58;20.80;65.10
59977;DHT22;45837;51.076;3.578;2023-10-19T07:09:26;20.80;64.30
59977;DHT22;45837;51.076;3.578;2023-10-19T07:11:52;20.80;64.30
59977;DHT22;45837;51.076;3.578;2023-10-19T07:14:22;19.30;64.50
59977;DHT22;45837;51.076;3.578;2023-10-19T07:16:48;20.70;63.70
59977;DHT22;45837;51.076;3.578;2023-10-19T07:19:15;20.70;63.90
59977;DHT22;45837;51.076;3.578;2023-10-19T07:21:41;20.70;64.40
59977;DHT22;45837;51.076;3.578;2023-10-19T07:24:09;20.70;65.00
59977;DHT22;45837;51.076;3.578;2023-10-19T07:26:36;20.70;64.20
59977;DHT22;45837;51.076;3.578;2023-10-19T07:29:16;20.70;64.00
59977;DHT22;45837;51.076;3.578;2023-10-19T07:31:43;20.70;64.40
59977;DHT22;45837;51.076;3.578;2023-10-19T07:34:09;20.70;64.80
59977;DHT22;45837;51.076;3.578;2023-10-19T07:36:38;20.70;64.30
59977;DHT22;45837;51.076;3.578;2023-10-19T07:39:04;20.70;65.00
59977;DHT22;45837;51.076;3.578;2023-10-19T07:41:30;20.70;65.20
59977;DHT22;45837;51.076;3.578;2023-10-19T07:44:01;20.70;64.30
59977;DHT22;45837;51.076;3.578;2023-10-19T07:46:27;20.70;64.20
59977;DHT22;45837;51.076;3.578;2023-10-19T07:48:55;20.60;64.80
59977;DHT22;45837;51.076;3.578;2023-10-19T07:51:21;20.70;64.40
59977;DHT22;45837;51.076;3.578;2023-10-19T07:53:47;20.70;64.40
59977;DHT22;45837;51.076;3.578;2023-10-19T07:56:13;20.60;64.70
59977;DHT22;45837;51.076;3.578;2023-10-19T07:58:39;20.70;64.60
59977;DHT22;45837;51.076;3.578;2023-10-19T08:01:07;20.60;65.00
59977;DHT22;45837;51.076;3.578;2023-10-19T08:03:32;20.50;64.50
59977;DHT22;45837;51.076;3.578;2023-10-19T08:05:58;20.60;64.30
59977;DHT22;45837;51.076;3.578;2023-10-19T08:08:24;20.60;64.30
59977;DHT22;45837;51.076;3.578;2023-10-19T08:10:50;20.60;64.40
59977;DHT22;45837;51.076;3.578;2023-10-19T08:13:15;20.70;65.50
59977;DHT22;45837;51.076;3.578;2023-10-19T08:15:41;20.60;64.60
59977;DHT22;45837;51.076;3.578;2023-10-19T08:18:07;20.60;65.00
59977;DHT22;45837;51.076;3.578;2023-10-19T08:20:32;20.60;64.90
59977;DHT22;45837;51.076;3.578;2023-10-19T08:23:02;17.70;63.10
59977;DHT22;45837;51.076;3.578;2023-10-19T08:25:28;20.60;64.00
59977;DHT22;45837;51.076;3.578;2023-10-19T08:27:54;20.70;66.30
59977;DHT22;45837;51.076;3.578;2023-10-19T08:30:22;20.60;64.20
59977;DHT22;45837;51.076;3.578;2023-10-19T08:32:48;20.60;63.40
59977;DHT22;45837;51.076;3.578;2023-10-19T08:35:16;20.60;64.10
59977;DHT22;45837;51.076;3.578;2023-10-19T08:37:51;20.60;63.30
59977;DHT22;45837;51.076;3.578;2023-10-19T08:40:18;20.60;64.00
59977;DHT22;45837;51.076;3.578;2023-10-19T08:42:45;20.60;63.80
59977;DHT22;45837;51.076;3.578;2023-10-19T08:45:11;20.60;63.50
59977;DHT22;45837;51.076;3.578;2023-10-19T08:47:56;20.50;63.90
59977;DHT22;45837;51.076;3.578;2023-10-19T08:50:26;20.50;63.40
59977;DHT22;45837;51.076;3.578;2023-10-19T08:52:55;20.60;63.30
59977;DHT22;45837;51.076;3.578;2023-10-19T08:55:21;20.50;63.30
59977;DHT22;45837;51.076;3.578;2023-10-19T08:57:50;20.60;64.00
59977;DHT22;45837;51.076;3.578;2023-10-19T09:00:17;20.50;63.70
59977;DHT22;45837;51.076;3.578;2023-10-19T09:02:56;20.40;64.50
59977;DHT22;45837;51.076;3.578;2023-10-19T09:05:22;20.40;64.40
59977;DHT22;45837;51.076;3.578;2023-10-19T09:07:48;20.40;64.80
59977;DHT22;45837;51.076;3.578;2023-10-19T09:10:23;20.40;64.40
59977;DHT22;45837;51.076;3.578;2023-10-19T09:13:01;20.50;64.20
59977;DHT22;45837;51.076;3.578;2023-10-19T09:15:27;18.70;62.90
59977;DHT22;45837;51.076;3.578;2023-10-19T09:17:54;20.50;64.40
59977;DHT22;45837;51.076;3.578;2023-10-19T09:20:20;20.50;64.90
59977;DHT22;45837;51.076;3.578;2023-10-19T09:22:55;20.60;64.00
59977;DHT22;45837;51.076;3.578;2023-10-19T09:25:23;20.60;64.00
59977;DHT22;45837;51.076;3.578;2023-10-19T09:27:50;20.50;64.30
59977;DHT22;45837;51.076;3.578;2023-10-19T09:30:17;20.50;64.50
59977;DHT22;45837;51.076;3.578;2023-10-19T09:32:47;20.50;64.00
59977;DHT22;45837;51.076;3.578;2023-10-19T09:35:16;20.50;64.20
59977;DHT22;45837;51.076;3.578;2023-10-19T09:37:42;20.50;64.40
59977;DHT22;45837;51.076;3.578;2023-10-19T09:40:11;20.40;64.60
59977;DHT22;45837;51.076;3.578;2023-10-19T09:42:39;20.50;65.60
59977;DHT22;45837;51.076;3.578;2023-10-19T09:45:11;20.50;64.80
59977;DHT22;45837;51.076;3.578;2023-10-19T09:47:41;20.50;64.90
59977;DHT22;45837;51.076;3.578;2023-10-19T09:50:07;20.50;65.10
59977;DHT22;45837;51.076;3.578;2023-10-19T09:52:33;20.50;65.70
59977;DHT22;45837;51.076;3.578;2023-10-19T09:55:22;20.50;66.30
59977;DHT22;45837;51.076;3.578;2023-10-19T09:57:50;20.50;66.60
59977;DHT22;45837;51.076;3.578;2023-10-19T10:00:18;20.50;66.00
59977;DHT22;45837;51.076;3.578;2023-10-19T10:02:49;20.50;66.40
59977;DHT22;45837;51.076;3.578;2023-10-19T10:15:53;20.60;66.00
59977;DHT22;45837;51.076;3.578;2023-10-19T10:18:31;20.50;66.50
59977;DHT22;45837;51.076;3.578;2023-10-19T10:21:07;20.50;67.90
59977;DHT22;45837;51.076;3.578;2023-10-19T10:23:42;20.40;66.60
59977;DHT22;45837;51.076;3.578;2023-10-19T10:26:11;20.40;66.30
59977;DHT22;45837;51.076;3.578;2023-10-19T10:28:39;20.00;66.00
59977;DHT22;45837;51.076;3.578;2023-10-19T10:33:38;20.40;66.20
59977;DHT22;45837;51.076;3.578;2023-10-19T10:36:07;20.40;66.40
59977;DHT22;45837;51.076;3.578;2023-10-19T10:38:33;20.40;66.40
59977;DHT22;45837;51.076;3.578;2023-10-19T10:41:01;20.40;66.40
59977;DHT22;45837;51.076;3.578;2023-10-19T10:43:27;20.50;66.80
59977;DHT22;45837;51.076;3.578;2023-10-19T10:46:03;20.40;66.70
59977;DHT22;45837;51.076;3.578;2023-10-19T10:48:30;20.40;66.20
59977;DHT22;45837;51.076;3.578;2023-10-19T10:50:55;20.50;67.50
59977;DHT22;45837;51.076;3.578;2023-10-19T10:53:22;20.40;66.90
59977;DHT22;45837;51.076;3.578;2023-10-19T10:55:50;20.40;66.00
59977;DHT22;45837;51.076;3.578;2023-10-19T10:58:16;20.40;67.00
59977;DHT22;45837;51.076;3.578;2023-10-19T11:00:45;20.50;66.50
59977;DHT22;45837;51.076;3.578;2023-10-19T11:03:16;20.40;66.20
59977;DHT22;45837;51.076;3.578;2023-10-19T11:05:42;20.40;67.80
59977;DHT22;45837;51.076;3.578;2023-10-19T11:08:14;20.40;66.00
59977;DHT22;45837;51.076;3.578;2023-10-19T11:10:46;20.40;65.90
59977;DHT22;45837;51.076;3.578;2023-10-19T11:13:13;20.50;65.90
59977;DHT22;45837;51.076;3.578;2023-10-19T11:15:49;20.50;66.00
59977;DHT22;45837;51.076;3.578;2023-10-19T11:18:37;20.50;65.90
59977;DHT22;45837;51.076;3.578;2023-10-19T11:21:08;20.50;65.20
59977;DHT22;45837;51.076;3.578;2023-10-19T11:26:01;20.30;66.10
59977;DHT22;45837;51.076;3.578;2023-10-19T11:28:27;20.50;65.60
59977;DHT22;45837;51.076;3.578;2023-10-19T11:31:00;20.50;66.50
59977;DHT22;45837;51.076;3.578;2023-10-19T11:33:35;20.50;66.60
59977;DHT22;45837;51.076;3.578;2023-10-19T11:36:02;20.50;66.20
59977;DHT22;45837;51.076;3.578;2023-10-19T11:38:27;20.50;66.90
59977;DHT22;45837;51.076;3.578;2023-10-19T11:40:53;20.50;65.90
59977;DHT22;45837;51.076;3.578;2023-10-19T11:43:19;20.50;66.20
59977;DHT22;45837;51.076;3.578;2023-10-19T11:45:45;20.50;66.40
59977;DHT22;45837;51.076;3.578;2023-10-19T11:48:11;20.50;65.80
59977;DHT22;45837;51.076;3.578;2023-10-19T11:50:37;20.50;66.20
59977;DHT22;45837;51.076;3.578;2023-10-19T11:53:03;20.40;67.10
59977;DHT22;45837;51.076;3.578;2023-10-19T11:55:28;20.50;66.80
59977;DHT22;45837;51.076;3.578;2023-10-19T11:57:54;20.50;66.00
59977;DHT22;45837;51.076;3.578;2023-10-19T12:00:20;20.40;66.50
59977;DHT22;45837;51.076;3.578;2023-10-19T12:02:55;20.50;65.60
59977;DHT22;45837;51.076;3.578;2023-10-19T12:05:21;20.50;65.80
59977;DHT22;45837;51.076;3.578;2023-10-19T12:07:49;20.50;65.70
59977;DHT22;45837;51.076;3.578;2023-10-19T12:10:15;20.50;65.60
59977;DHT22;45837;51.076;3.578;2023-10-19T12:12:40;20.50;65.90
59977;DHT22;45837;51.076;3.578;2023-10-19T12:15:07;20.50;65.30
59977;DHT22;45837;51.076;3.578;2023-10-19T12:17:33;18.70;64.20
59977;DHT22;45837;51.076;3.578;2023-10-19T12:19:58;20.50;65.90
59977;DHT22;45837;51.076;3.578;2023-10-19T12:22:24;20.50;65.70
59977;DHT22;45837;51.076;3.578;2023-10-19T12:24:54;20.50;65.70
59977;DHT22;45837;51.076;3.578;2023-10-19T12:27:20;20.50;64.90
59977;DHT22;45837;51.076;3.578;2023-10-19T12:29:46;20.50;66.00
59977;DHT22;45837;51.076;3.578;2023-10-19T12:32:11;23.60;69.00
59977;DHT22;45837;51.076;3.578;2023-10-19T12:34:40;20.40;65.50
59977;DHT22;45837;51.076;3.578;2023-10-19T12:37:05;20.40;64.80
59977;DHT22;45837;51.076;3.578;2023-10-19T12:39:33;20.40;65.70
59977;DHT22;45837;51.076;3.578;2023-10-19T12:42:08;20.40;64.80
59977;DHT22;45837;51.076;3.578;2023-10-19T12:44:34;20.40;65.20
59977;DHT22;45837;51.076;3.578;2023-10-19T12:47:07;20.40;65.20
59977;DHT22;45837;51.076;3.578;2023-10-19T12:49:38;20.40;65.80
59977;DHT22;45837;51.076;3.578;2023-10-19T12:52:04;20.50;65.40
59977;DHT22;45837;51.076;3.578;2023-10-19T12:54:33;20.40;66.00
59977;DHT22;45837;51.076;3.578;2023-10-19T12:57:00;20.40;65.10
59977;DHT22;45837;51.076;3.578;2023-10-19T12:59:26;20.40;65.70
59977;DHT22;45837;51.076;3.578;2023-10-19T13:01:51;20.50;65.90
59977;DHT22;45837;51.076;3.578;2023-10-19T13:04:23;20.50;65.20
59977;DHT22;45837;51.076;3.578;2023-10-19T13:06:50;20.50;65.10
59977;DHT22;45837;51.076;3.578;2023-10-19T13:09:15;20.50;65.30
59977;DHT22;45837;51.076;3.578;2023-10-19T13:11:49;20.50;65.20
59977;DHT22;45837;51.076;3.578;2023-10-19T13:14:18;20.50;64.70
59977;DHT22;45837;51.076;3.578;2023-10-19T13:16:44;20.10;66.10
59977;DHT22;45837;51.076;3.578;2023-10-19T13:19:10;20.50;64.90
59977;DHT22;45837;51.076;3.578;2023-10-19T13:21:39;20.50;65.60
59977;DHT22;45837;51.076;3.578;2023-10-19T13:24:05;20.50;65.10
59977;DHT22;45837;51.076;3.578;2023-10-19T13:26:31;20.50;65.20
59977;DHT22;45837;51.076;3.578;2023-10-19T13:28:57;20.50;65.00
59977;DHT22;45837;51.076;3.578;2023-10-19T13:31:23;20.50;65.80
59977;DHT22;45837;51.076;3.578;2023-10-19T13:33:52;20.50;64.80
59977;DHT22;45837;51.076;3.578;2023-10-19T13:36:18;20.50;65.70
59977;DHT22;45837;51.076;3.578;2023-10-19T13:38:45;20.50;65.10
59977;DHT22;45837;51.076;3.578;2023-10-19T13:41:10;20.50;65.40
59977;DHT22;45837;51.076;3.578;2023-10-19T13:43:37;20.50;65.10
59977;DHT22;45837;51.076;3.578;2023-10-19T13:46:02;20.40;64.60
59977;DHT22;45837;51.076;3.578;2023-10-19T13:48:30;20.50;65.50
59977;DHT22;45837;51.076;3.578;2023-10-19T13:50:56;20.40;64.60
59977;DHT22;45837;51.076;3.578;2023-10-19T13:53:41;20.40;64.70
59977;DHT22;45837;51.076;3.578;2023-10-19T13:56:07;20.50;64.50
59977;DHT22;45837;51.076;3.578;2023-10-19T13:58:34;20.50;65.20
59977;DHT22;45837;51.076;3.578;2023-10-19T14:01:00;20.50;65.10
59977;DHT22;45837;51.076;3.578;2023-10-19T14:03:26;20.50;65.60
59977;DHT22;45837;51.076;3.578;2023-10-19T14:05:51;20.50;65.80
59977;DHT22;45837;51.076;3.578;2023-10-19T14:08:21;20.50;65.60
59977;DHT22;45837;51.076;3.578;2023-10-19T14:10:47;20.50;67.50
59977;DHT22;45837;51.076;3.578;2023-10-19T14:13:13;20.50;66.70
59977;DHT22;45837;51.076;3.578;2023-10-19T14:15:40;20.50;66.80
59977;DHT22;45837;51.076;3.578;2023-10-19T14:18:08;20.40;65.70
59977;DHT22;45837;51.076;3.578;2023-10-19T14:20:34;20.40;65.80
59977;DHT22;45837;51.076;3.578;2023-10-19T14:23:01;20.40;66.50
59977;DHT22;45837;51.076;3.578;2023-10-19T14:25:27;20.40;66.30
59977;DHT22;45837;51.076;3.578;2023-10-19T14:27:54;20.40;66.60
59977;DHT22;45837;51.076;3.578;2023-10-19T14:30:23;20.40;66.30
59977;DHT22;45837;51.076;3.578;2023-10-19T14:32:49;20.40;66.30
59977;DHT22;45837;51.076;3.578;2023-10-19T14:35:16;20.40;66.20
59977;DHT22;45837;51.076;3.578;2023-10-19T14:37:43;20.40;66.00
59977;DHT22;45837;51.076;3.578;2023-10-19T14:40:12;20.40;66.10
59977;DHT22;45837;51.076;3.578;2023-10-19T14:42:40;20.40;66.20
59977;DHT22;45837;51.076;3.578;2023-10-19T14:45:11;20.50;66.50
59977;DHT22;45837;51.076;3.578;2023-10-19T14:47:45;20.50;66.20
59977;DHT22;45837;51.076;3.578;2023-10-19T14:50:11;20.50;66.30
59977;DHT22;45837;51.076;3.578;2023-10-19T14:52:42;20.50;66.80
59977;DHT22;45837;51.076;3.578;2023-10-19T14:55:08;20.50;66.40
59977;DHT22;45837;51.076;3.578;2023-10-19T14:57:35;20.50;66.50
59977;DHT22;45837;51.076;3.578;2023-10-19T15:00:01;20.50;66.60
59977;DHT22;45837;51.076;3.578;2023-10-19T15:02:35;20.50;67.10
59977;DHT22;45837;51.076;3.578;2023-10-19T15:05:01;20.50;67.10
59977;DHT22;45837;51.076;3.578;2023-10-19T15:07:27;20.50;67.80
59977;DHT22;45837;51.076;3.578;2023-10-19T15:09:53;20.60;67.70
59977;DHT22;45837;51.076;3.578;2023-10-19T15:12:18;20.50;67.90
59977;DHT22;45837;51.076;3.578;2023-10-19T15:14:45;20.60;67.70
59977;DHT22;45837;51.076;3.578;2023-10-19T15:17:10;20.50;68.70
59977;DHT22;45837;51.076;3.578;2023-10-19T15:19:37;20.50;68.70
59977;DHT22;45837;51.076;3.578;2023-10-19T15:22:02;20.50;69.40
59977;DHT22;45837;51.076;3.578;2023-10-19T15:24:28;20.60;68.20
59977;DHT22;45837;51.076;3.578;2023-10-19T15:26:54;20.50;67.70
59977;DHT22;45837;51.076;3.578;2023-10-19T15:29:19;20.50;68.10
59977;DHT22;45837;51.076;3.578;2023-10-19T15:31:45;20.60;68.30
59977;DHT22;45837;51.076;3.578;2023-10-19T15:34:14;17.80;66.50
59977;DHT22;45837;51.076;3.578;2023-10-19T15:36:41;20.60;69.30
59977;DHT22;45837;51.076;3.578;2023-10-19T15:39:07;20.60;68.40
59977;DHT22;45837;51.076;3.578;2023-10-19T15:41:36;20.70;68.40
59977;DHT22;45837;51.076;3.578;2023-10-19T15:44:01;20.70;69.30
59977;DHT22;45837;51.076;3.578;2023-10-19T15:46:28;20.00;68.00
59977;DHT22;45837;51.076;3.578;2023-10-19T15:48:55;20.80;67.70
59977;DHT22;45837;51.076;3.578;2023-10-19T15:51:22;20.80;69.60
59977;DHT22;45837;51.076;3.578;2023-10-19T15:53:47;20.80;68.60
59977;DHT22;45837;51.076;3.578;2023-10-19T15:56:13;20.80;68.90
59977;DHT22;45837;51.076;3.578;2023-10-19T15:58:41;20.80;68.60